Maskanah, Syria
Current Conditions -  °F | °C
As of 2:20 AM on Friday 19 Dec 2014 (Local Time) from LTAJ Reporting Station
Haze Haze  
Wind Chill: 42°   Ceiling: 2000
Heat Index: 46°   Visibility: 3mi
Dew Point: 43°   Wind: 8mph
Humidity: 87%   Direction: 70°ENE
Pressure: 30.12"   Gusts: NA
Location:  36.02°N, 38.08°E
Report Text: LTAJ 182320Z 07007KT 4800 BR SCT007 BKN020 OVC080 08/06 Q1020 NOSIG
Loading
Personal Weather Stations






























Interactive Weather Map New forecast layout! Learn more

10-Day Weather Forecast

Advertisements
Track Severe Weather on mobile